sensor_id;sensor_type;location;lat;lon;timestamp;P1;durP1;ratioP1;P2;durP2;ratioP2
1122;SDS011;548;48.778;9.252;2023-04-01T00:01:27;12.50;;;12.07;;
1122;SDS011;548;48.778;9.252;2023-04-01T00:03:54;12.60;;;12.20;;
1122;SDS011;548;48.778;9.252;2023-04-01T00:06:21;11.77;;;11.37;;
1122;SDS011;548;48.778;9.252;2023-04-01T00:08:47;12.20;;;11.70;;
1122;SDS011;548;48.778;9.252;2023-04-01T00:11:16;12.70;;;12.20;;
1122;SDS011;548;48.778;9.252;2023-04-01T00:13:43;12.37;;;11.87;;
1122;SDS011;548;48.778;9.252;2023-04-01T00:16:10;12.17;;;11.67;;
1122;SDS011;548;48.778;9.252;2023-04-01T00:18:37;11.57;;;11.07;;
1122;SDS011;548;48.778;9.252;2023-04-01T00:21:04;11.50;;;11.20;;
1122;SDS011;548;48.778;9.252;2023-04-01T00:23:31;11.77;;;11.30;;
1122;SDS011;548;48.778;9.252;2023-04-01T00:25:58;12.37;;;11.87;;
1122;SDS011;548;48.778;9.252;2023-04-01T00:28:27;13.70;;;12.60;;
1122;SDS011;548;48.778;9.252;2023-04-01T00:30:54;12.37;;;11.70;;
1122;SDS011;548;48.778;9.252;2023-04-01T00:33:21;12.73;;;12.20;;
1122;SDS011;548;48.778;9.252;2023-04-01T00:35:47;12.20;;;11.40;;
1122;SDS011;548;48.778;9.252;2023-04-01T00:38:14;12.10;;;11.50;;
1122;SDS011;548;48.778;9.252;2023-04-01T00:40:42;11.30;;;10.70;;
1122;SDS011;548;48.778;9.252;2023-04-01T00:43:11;13.13;;;12.03;;
1122;SDS011;548;48.778;9.252;2023-04-01T00:45:41;14.03;;;13.20;;
1122;SDS011;548;48.778;9.252;2023-04-01T00:48:10;14.00;;;13.30;;
1122;SDS011;548;48.778;9.252;2023-04-01T00:50:39;12.97;;;12.27;;
1122;SDS011;548;48.778;9.252;2023-04-01T00:53:08;12.77;;;12.13;;
1122;SDS011;548;48.778;9.252;2023-04-01T00:55:35;12.70;;;12.20;;
1122;SDS011;548;48.778;9.252;2023-04-01T00:58:08;13.13;;;12.73;;
1122;SDS011;548;48.778;9.252;2023-04-01T01:00:41;13.00;;;12.60;;
1122;SDS011;548;48.778;9.252;2023-04-01T01:03:08;12.73;;;12.13;;
1122;SDS011;548;48.778;9.252;2023-04-01T01:05:38;13.03;;;12.43;;
1122;SDS011;548;48.778;9.252;2023-04-01T01:08:23;13.27;;;12.57;;
1122;SDS011;548;48.778;9.252;2023-04-01T01:11:01;12.30;;;11.80;;
1122;SDS011;548;48.778;9.252;2023-04-01T01:13:31;15.03;;;14.43;;
1122;SDS011;548;48.778;9.252;2023-04-01T01:16:09;16.70;;;15.90;;
1122;SDS011;548;48.778;9.252;2023-04-01T01:18:42;16.07;;;15.47;;
1122;SDS011;548;48.778;9.252;2023-04-01T01:21:30;17.63;;;16.83;;
1122;SDS011;548;48.778;9.252;2023-04-01T01:27:28;16.30;;;15.67;;
1122;SDS011;548;48.778;9.252;2023-04-01T01:33:01;15.87;;;15.27;;
1122;SDS011;548;48.778;9.252;2023-04-01T01:35:49;15.40;;;14.80;;
1122;SDS011;548;48.778;9.252;2023-04-01T01:38:18;15.07;;;14.47;;
1122;SDS011;548;48.778;9.252;2023-04-01T01:40:48;14.87;;;13.90;;
1122;SDS011;548;48.778;9.252;2023-04-01T01:43:19;14.53;;;13.93;;
1122;SDS011;548;48.778;9.252;2023-04-01T01:45:50;14.40;;;13.83;;
1122;SDS011;548;48.778;9.252;2023-04-01T01:48:20;15.20;;;14.60;;
1122;SDS011;548;48.778;9.252;2023-04-01T01:50:51;14.50;;;14.00;;
1122;SDS011;548;48.778;9.252;2023-04-01T01:53:19;17.13;;;16.43;;
1122;SDS011;548;48.778;9.252;2023-04-01T01:55:46;18.17;;;17.47;;
1122;SDS011;548;48.778;9.252;2023-04-01T01:58:16;18.17;;;17.40;;
1122;SDS011;548;48.778;9.252;2023-04-01T02:00:46;18.60;;;17.80;;
1122;SDS011;548;48.778;9.252;2023-04-01T02:03:17;19.73;;;18.93;;
1122;SDS011;548;48.778;9.252;2023-04-01T02:05:45;19.93;;;19.10;;
1122;SDS011;548;48.778;9.252;2023-04-01T02:08:15;18.57;;;17.87;;
1122;SDS011;548;48.778;9.252;2023-04-01T02:10:47;19.07;;;17.97;;
1122;SDS011;548;48.778;9.252;2023-04-01T02:13:21;18.17;;;17.43;;
1122;SDS011;548;48.778;9.252;2023-04-01T02:15:53;18.20;;;17.40;;
1122;SDS011;548;48.778;9.252;2023-04-01T02:18:25;18.97;;;18.17;;
1122;SDS011;548;48.778;9.252;2023-04-01T02:20:54;16.83;;;16.23;;
1122;SDS011;548;48.778;9.252;2023-04-01T02:23:24;18.27;;;17.57;;
1122;SDS011;548;48.778;9.252;2023-04-01T02:25:52;17.50;;;16.80;;
1122;SDS011;548;48.778;9.252;2023-04-01T02:28:20;17.13;;;16.20;;
1122;SDS011;548;48.778;9.252;2023-04-01T02:30:48;16.50;;;15.80;;
1122;SDS011;548;48.778;9.252;2023-04-01T02:33:16;17.10;;;16.30;;
1122;SDS011;548;48.778;9.252;2023-04-01T02:35:44;17.00;;;16.40;;
1122;SDS011;548;48.778;9.252;2023-04-01T02:38:11;17.10;;;16.50;;
1122;SDS011;548;48.778;9.252;2023-04-01T02:40:42;15.40;;;14.90;;
1122;SDS011;548;48.778;9.252;2023-04-01T02:43:11;14.30;;;13.70;;
1122;SDS011;548;48.778;9.252;2023-04-01T02:45:37;14.10;;;13.60;;
1122;SDS011;548;48.778;9.252;2023-04-01T02:48:04;14.00;;;13.40;;
1122;SDS011;548;48.778;9.252;2023-04-01T02:50:31;16.03;;;15.33;;
1122;SDS011;548;48.778;9.252;2023-04-01T02:52:58;13.40;;;12.90;;
1122;SDS011;548;48.778;9.252;2023-04-01T02:55:25;14.37;;;13.87;;
1122;SDS011;548;48.778;9.252;2023-04-01T02:57:53;13.40;;;13.00;;
1122;SDS011;548;48.778;9.252;2023-04-01T03:00:19;13.40;;;13.00;;
1122;SDS011;548;48.778;9.252;2023-04-01T03:02:46;11.87;;;11.47;;
1122;SDS011;548;48.778;9.252;2023-04-01T03:05:13;12.60;;;12.20;;
1122;SDS011;548;48.778;9.252;2023-04-01T03:07:40;13.00;;;12.50;;
1122;SDS011;548;48.778;9.252;2023-04-01T03:10:07;12.23;;;11.83;;
1122;SDS011;548;48.778;9.252;2023-04-01T03:12:34;11.40;;;11.10;;
1122;SDS011;548;48.778;9.252;2023-04-01T03:15:03;11.63;;;11.23;;
1122;SDS011;548;48.778;9.252;2023-04-01T03:17:30;12.43;;;11.90;;
1122;SDS011;548;48.778;9.252;2023-04-01T03:19:57;11.77;;;11.27;;
1122;SDS011;548;48.778;9.252;2023-04-01T03:22:24;12.50;;;12.10;;
1122;SDS011;548;48.778;9.252;2023-04-01T03:24:51;12.43;;;11.93;;
1122;SDS011;548;48.778;9.252;2023-04-01T03:27:17;12.53;;;11.90;;
1122;SDS011;548;48.778;9.252;2023-04-01T03:29:44;12.80;;;12.40;;
1122;SDS011;548;48.778;9.252;2023-04-01T03:32:12;12.17;;;11.77;;
1122;SDS011;548;48.778;9.252;2023-04-01T03:34:39;12.60;;;12.00;;
1122;SDS011;548;48.778;9.252;2023-04-01T03:37:05;11.27;;;10.87;;
1122;SDS011;548;48.778;9.252;2023-04-01T03:39:32;11.50;;;11.20;;
1122;SDS011;548;48.778;9.252;2023-04-01T03:41:59;13.40;;;12.83;;
1122;SDS011;548;48.778;9.252;2023-04-01T03:44:29;12.00;;;11.70;;
1122;SDS011;548;48.778;9.252;2023-04-01T03:46:56;11.63;;;11.33;;
1122;SDS011;548;48.778;9.252;2023-04-01T03:49:24;12.27;;;11.80;;
1122;SDS011;548;48.778;9.252;2023-04-01T03:51:51;11.93;;;11.53;;
1122;SDS011;548;48.778;9.252;2023-04-01T03:54:18;12.00;;;11.50;;
1122;SDS011;548;48.778;9.252;2023-04-01T03:56:45;12.90;;;12.20;;
1122;SDS011;548;48.778;9.252;2023-04-01T03:59:12;11.70;;;11.30;;
1122;SDS011;548;48.778;9.252;2023-04-01T04:01:39;10.80;;;10.50;;
1122;SDS011;548;48.778;9.252;2023-04-01T04:04:05;12.60;;;12.10;;
1122;SDS011;548;48.778;9.252;2023-04-01T04:06:34;11.93;;;11.47;;
1122;SDS011;548;48.778;9.252;2023-04-01T04:09:01;13.50;;;13.10;;
1122;SDS011;548;48.778;9.252;2023-04-01T04:11:27;11.63;;;11.10;;
1122;SDS011;548;48.778;9.252;2023-04-01T04:13:57;11.57;;;11.07;;
1122;SDS011;548;48.778;9.252;2023-04-01T04:16:23;12.03;;;11.37;;
1122;SDS011;548;48.778;9.252;2023-04-01T04:18:50;12.20;;;11.60;;
1122;SDS011;548;48.778;9.252;2023-04-01T04:21:17;11.30;;;10.80;;
1122;SDS011;548;48.778;9.252;2023-04-01T04:23:45;12.10;;;11.70;;
1122;SDS011;548;48.778;9.252;2023-04-01T04:26:13;12.80;;;12.30;;
1122;SDS011;548;48.778;9.252;2023-04-01T04:28:40;12.40;;;12.00;;
1122;SDS011;548;48.778;9.252;2023-04-01T04:31:07;12.80;;;12.27;;
1122;SDS011;548;48.778;9.252;2023-04-01T04:33:34;12.10;;;11.70;;
1122;SDS011;548;48.778;9.252;2023-04-01T04:36:02;11.80;;;11.40;;
1122;SDS011;548;48.778;9.252;2023-04-01T04:38:30;11.83;;;11.47;;
1122;SDS011;548;48.778;9.252;2023-04-01T04:40:58;11.80;;;11.40;;
1122;SDS011;548;48.778;9.252;2023-04-01T04:43:25;11.93;;;11.53;;
1122;SDS011;548;48.778;9.252;2023-04-01T04:45:51;10.53;;;10.23;;
1122;SDS011;548;48.778;9.252;2023-04-01T04:48:18;11.10;;;10.70;;
1122;SDS011;548;48.778;9.252;2023-04-01T04:50:45;11.60;;;11.20;;
1122;SDS011;548;48.778;9.252;2023-04-01T04:53:12;11.37;;;10.90;;
1122;SDS011;548;48.778;9.252;2023-04-01T04:55:42;12.63;;;12.13;;
1122;SDS011;548;48.778;9.252;2023-04-01T04:58:11;12.20;;;11.80;;
1122;SDS011;548;48.778;9.252;2023-04-01T05:00:38;11.90;;;11.50;;
1122;SDS011;548;48.778;9.252;2023-04-01T05:03:04;11.30;;;10.97;;
1122;SDS011;548;48.778;9.252;2023-04-01T05:05:31;12.03;;;11.57;;
1122;SDS011;548;48.778;9.252;2023-04-01T05:07:58;12.10;;;11.70;;
1122;SDS011;548;48.778;9.252;2023-04-01T05:10:25;12.27;;;11.87;;
1122;SDS011;548;48.778;9.252;2023-04-01T05:12:51;12.67;;;12.27;;
1122;SDS011;548;48.778;9.252;2023-04-01T05:15:19;12.53;;;12.13;;
1122;SDS011;548;48.778;9.252;2023-04-01T05:17:46;11.40;;;10.97;;
1122;SDS011;548;48.778;9.252;2023-04-01T05:20:13;12.00;;;11.50;;
1122;SDS011;548;48.778;9.252;2023-04-01T05:22:41;12.13;;;11.70;;
1122;SDS011;548;48.778;9.252;2023-04-01T05:25:07;12.63;;;12.20;;
1122;SDS011;548;48.778;9.252;2023-04-01T05:27:34;13.13;;;12.53;;
1122;SDS011;548;48.778;9.252;2023-04-01T05:30:01;13.63;;;13.00;;
1122;SDS011;548;48.778;9.252;2023-04-01T05:32:30;11.70;;;11.40;;
1122;SDS011;548;48.778;9.252;2023-04-01T05:34:57;12.03;;;11.53;;
1122;SDS011;548;48.778;9.252;2023-04-01T05:37:23;13.30;;;12.40;;
1122;SDS011;548;48.778;9.252;2023-04-01T05:39:50;11.70;;;11.20;;
1122;SDS011;548;48.778;9.252;2023-04-01T05:42:17;12.13;;;11.70;;
1122;SDS011;548;48.778;9.252;2023-04-01T05:44:43;11.70;;;11.30;;
1122;SDS011;548;48.778;9.252;2023-04-01T05:47:10;11.73;;;11.40;;
1122;SDS011;548;48.778;9.252;2023-04-01T05:49:38;11.93;;;11.30;;
1122;SDS011;548;48.778;9.252;2023-04-01T05:52:05;11.57;;;11.10;;
1122;SDS011;548;48.778;9.252;2023-04-01T05:54:31;12.43;;;12.03;;
1122;SDS011;548;48.778;9.252;2023-04-01T05:56:59;10.93;;;10.63;;
1122;SDS011;548;48.778;9.252;2023-04-01T05:59:26;12.00;;;11.50;;
1122;SDS011;548;48.778;9.252;2023-04-01T06:01:52;10.57;;;10.20;;
1122;SDS011;548;48.778;9.252;2023-04-01T06:04:19;13.00;;;12.30;;
1122;SDS011;548;48.778;9.252;2023-04-01T06:06:47;11.67;;;11.27;;
1122;SDS011;548;48.778;9.252;2023-04-01T06:09:15;10.43;;;10.00;;
1122;SDS011;548;48.778;9.252;2023-04-01T06:11:46;10.27;;;9.87;;
1122;SDS011;548;48.778;9.252;2023-04-01T06:14:27;11.23;;;10.73;;
1122;SDS011;548;48.778;9.252;2023-04-01T06:17:07;10.60;;;10.30;;
1122;SDS011;548;48.778;9.252;2023-04-01T06:19:47;10.93;;;10.43;;
1122;SDS011;548;48.778;9.252;2023-04-01T06:25:23;10.63;;;10.23;;
1122;SDS011;548;48.778;9.252;2023-04-01T06:28:07;10.93;;;10.40;;
1122;SDS011;548;48.778;9.252;2023-04-01T06:31:00;11.50;;;11.00;;
1122;SDS011;548;48.778;9.252;2023-04-01T06:33:35;10.20;;;9.90;;
1122;SDS011;548;48.778;9.252;2023-04-01T06:36:28;11.00;;;10.50;;
1122;SDS011;548;48.778;9.252;2023-04-01T06:39:19;10.83;;;10.43;;
1122;SDS011;548;48.778;9.252;2023-04-01T06:44:53;10.37;;;9.97;;
1122;SDS011;548;48.778;9.252;2023-04-01T06:47:34;10.50;;;10.13;;
1122;SDS011;548;48.778;9.252;2023-04-01T06:50:11;11.10;;;10.50;;
1122;SDS011;548;48.778;9.252;2023-04-01T06:52:50;10.80;;;10.40;;
1122;SDS011;548;48.778;9.252;2023-04-01T06:55:27;9.60;;;9.27;;
1122;SDS011;548;48.778;9.252;2023-04-01T06:58:00;9.63;;;9.33;;
1122;SDS011;548;48.778;9.252;2023-04-01T07:00:31;9.77;;;9.43;;
1122;SDS011;548;48.778;9.252;2023-04-01T07:03:03;9.07;;;8.83;;
1122;SDS011;548;48.778;9.252;2023-04-01T07:05:36;9.20;;;8.90;;
1122;SDS011;548;48.778;9.252;2023-04-01T07:08:03;8.93;;;8.43;;
1122;SDS011;548;48.778;9.252;2023-04-01T07:10:38;9.07;;;8.73;;
1122;SDS011;548;48.778;9.252;2023-04-01T07:13:13;9.43;;;9.13;;
1122;SDS011;548;48.778;9.252;2023-04-01T07:15:54;10.80;;;10.30;;
1122;SDS011;548;48.778;9.252;2023-04-01T07:18:27;10.33;;;9.93;;
1122;SDS011;548;48.778;9.252;2023-04-01T07:20:58;10.40;;;9.93;;
1122;SDS011;548;48.778;9.252;2023-04-01T07:23:28;9.57;;;9.17;;
1122;SDS011;548;48.778;9.252;2023-04-01T07:26:13;10.00;;;9.50;;
1122;SDS011;548;48.778;9.252;2023-04-01T07:28:43;10.20;;;9.73;;
1122;SDS011;548;48.778;9.252;2023-04-01T07:31:13;10.57;;;9.97;;
1122;SDS011;548;48.778;9.252;2023-04-01T07:33:50;9.97;;;9.63;;
1122;SDS011;548;48.778;9.252;2023-04-01T07:36:24;10.03;;;9.50;;
1122;SDS011;548;48.778;9.252;2023-04-01T07:38:59;8.50;;;8.23;;
1122;SDS011;548;48.778;9.252;2023-04-01T07:41:37;9.70;;;9.30;;
1122;SDS011;548;48.778;9.252;2023-04-01T07:44:12;8.97;;;8.67;;
1122;SDS011;548;48.778;9.252;2023-04-01T07:46:47;8.90;;;8.60;;
1122;SDS011;548;48.778;9.252;2023-04-01T07:49:22;9.40;;;9.10;;
1122;SDS011;548;48.778;9.252;2023-04-01T07:51:57;10.40;;;10.00;;
1122;SDS011;548;48.778;9.252;2023-04-01T07:54:30;10.50;;;10.10;;
1122;SDS011;548;48.778;9.252;2023-04-01T07:57:06;8.37;;;8.00;;
1122;SDS011;548;48.778;9.252;2023-04-01T07:59:39;8.80;;;8.50;;
1122;SDS011;548;48.778;9.252;2023-04-01T08:02:14;9.00;;;8.70;;
1122;SDS011;548;48.778;9.252;2023-04-01T08:04:53;9.73;;;9.43;;
1122;SDS011;548;48.778;9.252;2023-04-01T08:07:30;8.63;;;8.33;;
1122;SDS011;548;48.778;9.252;2023-04-01T08:10:09;8.60;;;8.30;;
1122;SDS011;548;48.778;9.252;2023-04-01T08:12:46;9.87;;;9.47;;
1122;SDS011;548;48.778;9.252;2023-04-01T08:15:21;10.63;;;10.20;;
1122;SDS011;548;48.778;9.252;2023-04-01T08:20:41;9.80;;;9.40;;
1122;SDS011;548;48.778;9.252;2023-04-01T08:23:12;9.67;;;9.27;;
1122;SDS011;548;48.778;9.252;2023-04-01T08:25:43;9.80;;;9.40;;
1122;SDS011;548;48.778;9.252;2023-04-01T08:28:17;10.33;;;9.93;;
1122;SDS011;548;48.778;9.252;2023-04-01T08:30:49;8.07;;;7.77;;
1122;SDS011;548;48.778;9.252;2023-04-01T08:33:21;9.07;;;8.67;;
1122;SDS011;548;48.778;9.252;2023-04-01T08:35:51;9.53;;;9.23;;
1122;SDS011;548;48.778;9.252;2023-04-01T08:38:23;10.00;;;9.60;;
1122;SDS011;548;48.778;9.252;2023-04-01T08:40:58;8.93;;;8.63;;
1122;SDS011;548;48.778;9.252;2023-04-01T08:43:35;8.80;;;8.50;;
1122;SDS011;548;48.778;9.252;2023-04-01T08:49:37;10.53;;;10.13;;
1122;SDS011;548;48.778;9.252;2023-04-01T08:52:26;18.27;;;17.67;;
1122;SDS011;548;48.778;9.252;2023-04-01T08:55:16;25.23;;;24.33;;
1122;SDS011;548;48.778;9.252;2023-04-01T08:57:56;29.60;;;28.50;;
1122;SDS011;548;48.778;9.252;2023-04-01T09:00:46;30.37;;;29.17;;
1122;SDS011;548;48.778;9.252;2023-04-01T09:03:30;31.10;;;29.70;;
1122;SDS011;548;48.778;9.252;2023-04-01T09:06:20;31.37;;;30.07;;
1122;SDS011;548;48.778;9.252;2023-04-01T09:09:10;32.27;;;30.80;;
1122;SDS011;548;48.778;9.252;2023-04-01T09:12:02;29.57;;;28.37;;
1122;SDS011;548;48.778;9.252;2023-04-01T09:14:57;28.37;;;27.17;;
1122;SDS011;548;48.778;9.252;2023-04-01T09:17:42;29.97;;;28.87;;
1122;SDS011;548;48.778;9.252;2023-04-01T09:20:29;30.67;;;29.43;;
1122;SDS011;548;48.778;9.252;2023-04-01T09:23:10;29.90;;;28.30;;
1122;SDS011;548;48.778;9.252;2023-04-01T09:25:50;26.10;;;25.17;;
1122;SDS011;548;48.778;9.252;2023-04-01T09:28:27;24.07;;;23.27;;
1122;SDS011;548;48.778;9.252;2023-04-01T09:31:09;20.40;;;19.50;;
1122;SDS011;548;48.778;9.252;2023-04-01T09:36:49;18.80;;;18.10;;
1122;SDS011;548;48.778;9.252;2023-04-01T09:39:34;17.70;;;16.70;;
1122;SDS011;548;48.778;9.252;2023-04-01T09:42:06;15.70;;;15.20;;
1122;SDS011;548;48.778;9.252;2023-04-01T09:44:43;18.50;;;17.80;;
1122;SDS011;548;48.778;9.252;2023-04-01T09:47:16;19.60;;;19.00;;
1122;SDS011;548;48.778;9.252;2023-04-01T09:50:03;20.07;;;19.30;;
1122;SDS011;548;48.778;9.252;2023-04-01T09:52:53;19.43;;;18.83;;
1122;SDS011;548;48.778;9.252;2023-04-01T09:58:43;20.67;;;19.97;;
1122;SDS011;548;48.778;9.252;2023-04-01T10:01:45;19.10;;;18.50;;
1122;SDS011;548;48.778;9.252;2023-04-01T10:07:35;15.80;;;15.30;;
1122;SDS011;548;48.778;9.252;2023-04-01T10:13:34;13.70;;;13.30;;
1122;SDS011;548;48.778;9.252;2023-04-01T10:16:25;11.57;;;11.17;;
1122;SDS011;548;48.778;9.252;2023-04-01T10:19:23;9.60;;;9.30;;
1122;SDS011;548;48.778;9.252;2023-04-01T10:22:23;9.50;;;9.20;;
1122;SDS011;548;48.778;9.252;2023-04-01T10:25:15;10.53;;;10.23;;
1122;SDS011;548;48.778;9.252;2023-04-01T10:28:00;7.80;;;7.60;;
1122;SDS011;548;48.778;9.252;2023-04-01T10:30:58;9.00;;;8.70;;
1122;SDS011;548;48.778;9.252;2023-04-01T10:33:56;9.27;;;9.00;;
1122;SDS011;548;48.778;9.252;2023-04-01T10:36:50;10.40;;;10.00;;
1122;SDS011;548;48.778;9.252;2023-04-01T10:45:50;11.27;;;10.87;;
1122;SDS011;548;48.778;9.252;2023-04-01T10:49:00;10.70;;;10.40;;
1122;SDS011;548;48.778;9.252;2023-04-01T10:57:49;9.17;;;8.97;;
1122;SDS011;548;48.778;9.252;2023-04-01T11:00:43;9.50;;;9.20;;
1122;SDS011;548;48.778;9.252;2023-04-01T11:03:44;9.90;;;9.60;;
1122;SDS011;548;48.778;9.252;2023-04-01T11:12:50;10.57;;;10.27;;
1122;SDS011;548;48.778;9.252;2023-04-01T11:15:40;10.10;;;9.80;;
1122;SDS011;548;48.778;9.252;2023-04-01T11:18:39;9.10;;;8.80;;
1122;SDS011;548;48.778;9.252;2023-04-01T11:21:45;8.47;;;8.17;;
1122;SDS011;548;48.778;9.252;2023-04-01T11:24:22;9.00;;;8.80;;
1122;SDS011;548;48.778;9.252;2023-04-01T11:27:05;10.37;;;10.07;;
1122;SDS011;548;48.778;9.252;2023-04-01T11:29:50;10.47;;;10.17;;
1122;SDS011;548;48.778;9.252;2023-04-01T11:32:30;9.40;;;9.07;;
1122;SDS011;548;48.778;9.252;2023-04-01T11:35:22;10.03;;;9.73;;
1122;SDS011;548;48.778;9.252;2023-04-01T11:38:00;9.70;;;9.40;;
1122;SDS011;548;48.778;9.252;2023-04-01T11:40:40;10.00;;;9.70;;
1122;SDS011;548;48.778;9.252;2023-04-01T11:43:11;9.97;;;9.67;;
1122;SDS011;548;48.778;9.252;2023-04-01T11:45:45;10.20;;;9.90;;
1122;SDS011;548;48.778;9.252;2023-04-01T11:48:25;9.00;;;8.80;;
1122;SDS011;548;48.778;9.252;2023-04-01T11:51:27;8.60;;;8.40;;
1122;SDS011;548;48.778;9.252;2023-04-01T11:54:22;8.30;;;8.10;;
1122;SDS011;548;48.778;9.252;2023-04-01T11:57:07;9.57;;;9.27;;
1122;SDS011;548;48.778;9.252;2023-04-01T11:59:51;9.60;;;9.20;;
1122;SDS011;548;48.778;9.252;2023-04-01T12:02:40;9.07;;;8.77;;
1122;SDS011;548;48.778;9.252;2023-04-01T12:08:12;9.63;;;9.33;;
1122;SDS011;548;48.778;9.252;2023-04-01T12:10:51;9.60;;;9.30;;
1122;SDS011;548;48.778;9.252;2023-04-01T12:13:26;10.00;;;9.70;;
1122;SDS011;548;48.778;9.252;2023-04-01T12:18:56;8.87;;;8.67;;
1122;SDS011;548;48.778;9.252;2023-04-01T12:21:30;9.40;;;9.10;;
1122;SDS011;548;48.778;9.252;2023-04-01T12:27:05;9.70;;;9.40;;
1122;SDS011;548;48.778;9.252;2023-04-01T12:29:53;11.03;;;10.73;;
1122;SDS011;548;48.778;9.252;2023-04-01T12:32:35;12.10;;;11.70;;
1122;SDS011;548;48.778;9.252;2023-04-01T12:35:16;12.00;;;11.70;;
1122;SDS011;548;48.778;9.252;2023-04-01T12:37:49;11.83;;;11.43;;
1122;SDS011;548;48.778;9.252;2023-04-01T12:40:39;10.50;;;10.20;;
1122;SDS011;548;48.778;9.252;2023-04-01T12:43:23;10.80;;;10.50;;
1122;SDS011;548;48.778;9.252;2023-04-01T12:46:12;10.10;;;9.80;;
1122;SDS011;548;48.778;9.252;2023-04-01T12:54:26;9.83;;;9.53;;
1122;SDS011;548;48.778;9.252;2023-04-01T12:57:22;9.37;;;9.10;;
1122;SDS011;548;48.778;9.252;2023-04-01T13:00:11;8.63;;;8.43;;
1122;SDS011;548;48.778;9.252;2023-04-01T13:02:53;8.80;;;8.60;;
1122;SDS011;548;48.778;9.252;2023-04-01T13:08:32;8.67;;;8.37;;
1122;SDS011;548;48.778;9.252;2023-04-01T13:11:09;9.30;;;9.00;;
1122;SDS011;548;48.778;9.252;2023-04-01T13:14:03;9.03;;;8.73;;
1122;SDS011;548;48.778;9.252;2023-04-01T13:16:41;8.83;;;8.63;;
1122;SDS011;548;48.778;9.252;2023-04-01T13:19:13;8.80;;;8.60;;
1122;SDS011;548;48.778;9.252;2023-04-01T13:21:50;8.17;;;7.87;;
1122;SDS011;548;48.778;9.252;2023-04-01T13:24:25;8.80;;;8.50;;
1122;SDS011;548;48.778;9.252;2023-04-01T13:27:03;8.63;;;8.43;;
1122;SDS011;548;48.778;9.252;2023-04-01T13:29:36;10.60;;;10.30;;
1122;SDS011;548;48.778;9.252;2023-04-01T13:32:12;8.43;;;8.23;;
1122;SDS011;548;48.778;9.252;2023-04-01T13:34:48;8.80;;;8.60;;
1122;SDS011;548;48.778;9.252;2023-04-01T13:37:29;9.00;;;8.80;;
1122;SDS011;548;48.778;9.252;2023-04-01T13:40:26;8.20;;;8.00;;
1122;SDS011;548;48.778;9.252;2023-04-01T13:43:08;9.00;;;8.70;;
1122;SDS011;548;48.778;9.252;2023-04-01T13:45:43;8.13;;;7.93;;
1122;SDS011;548;48.778;9.252;2023-04-01T13:48:29;9.40;;;9.10;;
1122;SDS011;548;48.778;9.252;2023-04-01T13:54:15;9.40;;;9.10;;
1122;SDS011;548;48.778;9.252;2023-04-01T13:56:56;9.27;;;8.97;;
1122;SDS011;548;48.778;9.252;2023-04-01T13:59:36;8.80;;;8.60;;
1122;SDS011;548;48.778;9.252;2023-04-01T14:02:21;9.00;;;8.70;;
1122;SDS011;548;48.778;9.252;2023-04-01T14:05:07;8.80;;;8.50;;
1122;SDS011;548;48.778;9.252;2023-04-01T14:07:47;9.00;;;8.80;;
1122;SDS011;548;48.778;9.252;2023-04-01T14:10:23;7.90;;;7.70;;
1122;SDS011;548;48.778;9.252;2023-04-01T14:12:58;8.83;;;8.63;;
1122;SDS011;548;48.778;9.252;2023-04-01T14:15:31;9.10;;;8.80;;
1122;SDS011;548;48.778;9.252;2023-04-01T14:18:09;9.90;;;9.60;;
1122;SDS011;548;48.778;9.252;2023-04-01T14:20:51;9.80;;;9.50;;
1122;SDS011;548;48.778;9.252;2023-04-01T14:29:24;8.90;;;8.70;;
1122;SDS011;548;48.778;9.252;2023-04-01T14:32:06;8.20;;;8.00;;
1122;SDS011;548;48.778;9.252;2023-04-01T14:34:44;9.40;;;9.10;;
1122;SDS011;548;48.778;9.252;2023-04-01T14:37:27;8.50;;;8.30;;
1122;SDS011;548;48.778;9.252;2023-04-01T14:40:18;8.77;;;8.47;;
1122;SDS011;548;48.778;9.252;2023-04-01T14:45:59;9.60;;;9.30;;
1122;SDS011;548;48.778;9.252;2023-04-01T14:48:50;10.37;;;10.07;;
1122;SDS011;548;48.778;9.252;2023-04-01T14:51:21;11.00;;;10.70;;
1122;SDS011;548;48.778;9.252;2023-04-01T14:53:58;10.83;;;10.43;;
1122;SDS011;548;48.778;9.252;2023-04-01T14:56:39;9.90;;;9.60;;
1122;SDS011;548;48.778;9.252;2023-04-01T14:59:09;8.77;;;8.57;;
1122;SDS011;548;48.778;9.252;2023-04-01T15:01:41;8.50;;;8.30;;
1122;SDS011;548;48.778;9.252;2023-04-01T15:04:20;9.17;;;8.87;;
1122;SDS011;548;48.778;9.252;2023-04-01T15:07:06;10.30;;;10.00;;
1122;SDS011;548;48.778;9.252;2023-04-01T15:09:49;8.80;;;8.60;;
1122;SDS011;548;48.778;9.252;2023-04-01T15:12:26;9.90;;;9.60;;
1122;SDS011;548;48.778;9.252;2023-04-01T15:15:09;9.70;;;9.40;;
1122;SDS011;548;48.778;9.252;2023-04-01T15:17:48;9.20;;;8.90;;
1122;SDS011;548;48.778;9.252;2023-04-01T15:20:28;8.77;;;8.37;;
1122;SDS011;548;48.778;9.252;2023-04-01T15:23:11;9.20;;;8.90;;
1122;SDS011;548;48.778;9.252;2023-04-01T15:25:54;10.40;;;10.10;;
1122;SDS011;548;48.778;9.252;2023-04-01T15:28:48;10.77;;;9.93;;
1122;SDS011;548;48.778;9.252;2023-04-01T15:31:26;9.80;;;9.50;;
1122;SDS011;548;48.778;9.252;2023-04-01T15:34:09;9.77;;;9.47;;
1122;SDS011;548;48.778;9.252;2023-04-01T15:36:50;9.80;;;9.50;;
1122;SDS011;548;48.778;9.252;2023-04-01T15:39:24;9.90;;;9.50;;
1122;SDS011;548;48.778;9.252;2023-04-01T15:42:11;10.00;;;9.70;;
1122;SDS011;548;48.778;9.252;2023-04-01T15:44:55;8.90;;;8.60;;
1122;SDS011;548;48.778;9.252;2023-04-01T15:47:32;10.13;;;9.83;;
1122;SDS011;548;48.778;9.252;2023-04-01T15:50:21;10.67;;;10.37;;
1122;SDS011;548;48.778;9.252;2023-04-01T15:52:57;8.93;;;8.73;;
1122;SDS011;548;48.778;9.252;2023-04-01T15:55:36;9.40;;;9.10;;
1122;SDS011;548;48.778;9.252;2023-04-01T15:58:16;10.23;;;9.87;;
1122;SDS011;548;48.778;9.252;2023-04-01T16:00:53;8.60;;;8.30;;
1122;SDS011;548;48.778;9.252;2023-04-01T16:03:33;9.17;;;8.87;;
1122;SDS011;548;48.778;9.252;2023-04-01T16:06:18;9.20;;;8.90;;
1122;SDS011;548;48.778;9.252;2023-04-01T16:09:02;9.40;;;9.10;;
1122;SDS011;548;48.778;9.252;2023-04-01T16:11:41;9.90;;;9.60;;
1122;SDS011;548;48.778;9.252;2023-04-01T16:14:21;10.43;;;10.13;;
1122;SDS011;548;48.778;9.252;2023-04-01T16:17:02;9.37;;;9.07;;
1122;SDS011;548;48.778;9.252;2023-04-01T16:19:38;9.30;;;9.00;;
1122;SDS011;548;48.778;9.252;2023-04-01T16:22:14;9.07;;;8.77;;
1122;SDS011;548;48.778;9.252;2023-04-01T16:24:45;9.23;;;8.93;;
1122;SDS011;548;48.778;9.252;2023-04-01T16:27:18;9.27;;;8.97;;
1122;SDS011;548;48.778;9.252;2023-04-01T16:29:53;8.63;;;8.33;;
1122;SDS011;548;48.778;9.252;2023-04-01T16:32:29;8.73;;;8.33;;
1122;SDS011;548;48.778;9.252;2023-04-01T16:35:10;9.20;;;8.83;;
1122;SDS011;548;48.778;9.252;2023-04-01T16:37:52;9.40;;;9.10;;
1122;SDS011;548;48.778;9.252;2023-04-01T16:40:25;9.47;;;9.17;;
1122;SDS011;548;48.778;9.252;2023-04-01T16:43:10;9.73;;;9.43;;
1122;SDS011;548;48.778;9.252;2023-04-01T16:45:45;9.60;;;9.20;;
1122;SDS011;548;48.778;9.252;2023-04-01T16:48:21;9.10;;;8.80;;
1122;SDS011;548;48.778;9.252;2023-04-01T16:50:54;9.00;;;8.70;;
1122;SDS011;548;48.778;9.252;2023-04-01T16:53:25;9.90;;;9.60;;
1122;SDS011;548;48.778;9.252;2023-04-01T16:56:07;9.70;;;9.40;;
1122;SDS011;548;48.778;9.252;2023-04-01T16:58:40;9.33;;;8.97;;
1122;SDS011;548;48.778;9.252;2023-04-01T17:01:12;9.10;;;8.77;;
1122;SDS011;548;48.778;9.252;2023-04-01T17:03:43;8.63;;;8.33;;
1122;SDS011;548;48.778;9.252;2023-04-01T17:06:18;8.50;;;8.30;;
1122;SDS011;548;48.778;9.252;2023-04-01T17:08:55;8.10;;;7.90;;
1122;SDS011;548;48.778;9.252;2023-04-01T17:11:35;8.13;;;7.83;;
1122;SDS011;548;48.778;9.252;2023-04-01T17:14:08;9.30;;;9.00;;
1122;SDS011;548;48.778;9.252;2023-04-01T17:16:48;10.23;;;9.93;;
1122;SDS011;548;48.778;9.252;2023-04-01T17:19:28;9.87;;;9.57;;
1122;SDS011;548;48.778;9.252;2023-04-01T17:22:05;10.40;;;10.10;;
1122;SDS011;548;48.778;9.252;2023-04-01T17:24:44;9.77;;;9.47;;